Time;durP1;ratioP1;P1;durP2;ratioP2;P2;SDS_P1;SDS_P2;PMS_P1;PMS_P2;Temp;Humidity;BMP_temperature;BMP_pressure;BME280_temperature;BME280_humidity;BME280_pressure;Samples;Min_cycle;Max_cycle;Signal;HPM_P1;HPM_P2
2022/01/21 00:01:38;;;;;;;41.03;30.88;;;;;;;8.94;65.08;100524.69;5011246;28;102074;-47
2022/01/21 00:04:06;;;;;;;44.95;31.27;;;;;;;8.94;64.86;100521.16;5011310;28;103713;-48
2022/01/21 00:06:33;;;;;;;39.50;30.60;;;;;;;8.94;64.95;100523.88;5013755;28;102336;-47
2022/01/21 00:09:00;;;;;;;44.33;32.13;;;;;;;8.92;65.04;100537.72;5011696;28;104141;-48
2022/01/21 00:11:30;;;;;;;41.40;31.73;;;;;;;8.94;65.16;100545.59;5015213;28;102647;-50
2022/01/21 00:13:57;;;;;;;41.20;31.75;;;;;;;8.93;65.57;100533.91;5013519;27;103942;-50
2022/01/21 00:16:26;;;;;;;44.33;31.55;;;;;;;8.93;65.60;100538.53;5016165;28;102533;-49
2022/01/21 00:19:10;;;;;;;42.20;31.40;;;;;;;8.93;64.72;100533.09;5007207;27;102413;-48
2022/01/21 00:30:16;;;;;;;41.50;30.92;;;;;;;8.93;65.32;100533.09;5013824;27;102138;-48
2022/01/21 00:32:45;;;;;;;39.22;29.20;;;;;;;8.93;65.08;100533.91;5015553;27;102230;-49
2022/01/21 00:35:13;;;;;;;41.55;29.88;;;;;;;8.92;64.87;100536.91;5011889;28;103897;-51
2022/01/21 00:37:40;;;;;;;37.40;30.20;;;;;;;8.92;64.88;100536.91;5014601;28;102709;-48
2022/01/21 00:40:09;;;;;;;36.40;28.02;;;;;;;8.93;65.60;100524.97;5014281;28;102441;-48
2022/01/21 00:45:10;;;;;;;40.13;29.70;;;;;;;8.93;64.90;100522.25;5012868;27;103869;-48
2022/01/21 00:47:38;;;;;;;38.25;29.33;;;;;;;8.93;65.22;100517.63;5013210;28;102320;-47
2022/01/21 00:50:06;;;;;;;37.00;28.83;;;;;;;8.93;65.60;100527.69;5009972;28;102362;-49
2022/01/21 00:52:33;;;;;;;;;;;;;;;8.93;64.97;100516.81;5016740;27;102572;-47
2022/01/21 00:55:00;;;;;;;34.97;27.83;;;;;;;8.93;65.15;100522.25;5013016;28;103773;-49
2022/01/21 00:57:26;;;;;;;34.22;27.48;;;;;;;8.92;64.92;100526.06;5004595;28;102095;-49
2022/01/21 00:59:54;;;;;;;36.25;27.40;;;;;;;8.91;65.66;100514.38;5010868;28;102205;-46
2022/01/21 01:02:21;;;;;;;34.60;27.30;;;;;;;8.93;65.06;100527.69;5010407;28;103129;-48
2022/01/21 01:04:47;;;;;;;35.83;27.20;;;;;;;8.93;64.92;100524.97;5014665;27;103918;-47
2022/01/21 01:07:14;;;;;;;33.72;25.50;;;;;;;8.90;65.13;100524.41;5008598;28;104202;-47
2022/01/21 01:09:42;;;;;;;40.10;26.52;;;;;;;8.92;65.58;100529.56;5012391;28;102292;-47
2022/01/21 01:12:26;;;;;;;34.85;26.98;;;;;;;8.93;64.75;100522.25;5011474;27;102573;-49
2022/01/21 01:20:24;;;;;;;31.33;24.83;;;;;;;8.93;64.81;100527.69;5013320;28;102339;-49
2022/01/21 01:28:03;;;;;;;30.35;24.00;;;;;;;8.92;65.17;100523.34;5010955;28;102302;-50
2022/01/21 01:30:33;;;;;;;33.30;24.20;;;;;;;8.92;65.46;100528.78;5012746;27;102346;-47
2022/01/21 01:33:01;;;;;;;33.13;25.00;;;;;;;8.92;65.09;100520.63;5014086;28;102265;-48
2022/01/21 01:35:31;;;;;;;34.20;25.13;;;;;;;8.92;64.81;100526.88;5014059;28;103847;-48
2022/01/21 01:51:16;;;;;;;32.88;24.95;;;;;;;8.93;65.00;100527.69;5009312;28;102477;-47
2022/01/21 01:53:46;;;;;;;33.75;25.40;;;;;;;8.92;65.67;100526.06;5014891;28;102697;-47
2022/01/21 01:56:15;;;;;;;32.00;24.48;;;;;;;8.92;65.57;100532.28;5010736;28;104039;-46
2022/01/21 01:58:43;;;;;;;30.02;22.98;;;;;;;8.93;65.35;100538.53;5013190;27;102602;-50
2022/01/21 02:01:11;;;;;;;30.23;23.35;;;;;;;8.90;65.41;100535.25;5014190;27;102146;-48
2022/01/21 02:03:38;;;;;;;29.10;23.08;;;;;;;8.91;65.35;100544.25;5011999;27;102221;-47
2022/01/21 02:06:05;;;;;;;27.23;22.13;;;;;;;8.90;65.78;100551.53;5009984;28;103936;-46
2022/01/21 02:08:32;;;;;;;29.98;23.38;;;;;;;8.89;65.51;100555.34;5011342;27;102315;-49
2022/01/21 02:10:59;;;;;;;29.88;22.92;;;;;;;8.92;65.22;100553.19;5014363;28;102048;-50
2022/01/21 02:13:29;;;;;;;28.88;23.77;;;;;;;8.92;65.19;100553.19;5014170;27;102213;-48
2022/01/21 02:15:58;;;;;;;28.67;23.25;;;;;;;8.90;65.58;100548.81;5012481;28;104304;-49
2022/01/21 02:21:31;;;;;;;28.08;23.52;;;;;;;8.92;65.61;100550.47;5013540;28;102594;-50
2022/01/21 02:23:59;;;;;;;29.42;22.90;;;;;;;8.90;65.48;100556.97;5012555;28;104001;-49
2022/01/21 02:26:26;;;;;;;27.73;22.90;;;;;;;8.90;65.25;100562.38;4992696;28;103858;-47
2022/01/21 02:28:53;;;;;;;29.30;22.17;;;;;;;8.90;64.93;100573.25;5012121;27;102192;-47
2022/01/21 02:31:20;;;;;;;28.02;22.02;;;;;;;8.90;65.04;100573.25;5013452;28;102450;-48
2022/01/21 02:33:48;;;;;;;29.23;22.00;;;;;;;8.90;65.61;100578.69;5014677;28;102266;-47
2022/01/21 02:36:15;;;;;;;29.60;22.15;;;;;;;8.90;65.36;100584.09;5012701;28;103976;-49
2022/01/21 02:38:42;;;;;;;26.98;22.45;;;;;;;8.90;65.01;100592.25;5012494;28;102301;-48
2022/01/21 02:41:09;;;;;;;27.35;21.75;;;;;;;8.89;65.68;100590.63;5014240;28;102337;-47
2022/01/21 02:43:36;;;;;;;27.23;21.70;;;;;;;8.90;65.11;100603.09;5013297;28;102184;-47
2022/01/21 02:46:06;;;;;;;28.00;21.92;;;;;;;8.90;65.15;100600.38;5011596;28;103908;-49
2022/01/21 02:48:37;;;;;;;26.20;21.80;;;;;;;8.90;65.30;100599.56;5004406;28;102697;-49
2022/01/21 02:51:06;;;;;;;26.13;21.30;;;;;;;8.90;65.72;100605.00;5003217;28;104487;-49
2022/01/21 02:56:13;;;;;;;25.40;20.70;;;;;;;8.90;65.69;100605.81;5006971;28;108127;-48
2022/01/21 02:58:40;;;;;;;26.70;21.25;;;;;;;8.90;65.23;100619.38;5008429;28;103039;-46
2022/01/21 03:01:07;;;;;;;25.08;20.63;;;;;;;8.90;65.87;100622.09;5004645;28;103592;-49
2022/01/21 03:03:34;;;;;;;26.77;21.70;;;;;;;8.90;65.63;100624.81;5009048;28;102364;-47
2022/01/21 03:06:01;;;;;;;26.58;20.42;;;;;;;8.90;65.49;100610.44;5009361;28;103875;-51
2022/01/21 03:08:29;;;;;;;18.17;14.10;;;;;;;8.89;65.48;100623.19;5003992;28;102978;-50
2022/01/21 03:10:57;;;;;;;26.27;20.92;;;;;;;8.90;65.69;100626.72;5012413;28;102172;-50
2022/01/21 03:13:25;;;;;;;;;;;;;;;8.89;65.59;100628.63;5012121;28;102420;-52
2022/01/21 03:15:52;;;;;;;26.05;20.13;;;;;;;8.90;66.01;100630.25;5007043;28;104524;-49
2022/01/21 03:18:19;;;;;;;24.65;19.83;;;;;;;8.90;64.98;100640.28;5003121;28;102267;-49
2022/01/21 03:20:48;;;;;;;25.35;19.48;;;;;;;8.90;64.98;100634.84;5013259;28;102219;-49
2022/01/21 03:23:17;;;;;;;23.00;19.15;;;;;;;8.89;65.67;100633.22;5011320;28;102398;-48
2022/01/21 03:25:46;;;;;;;22.67;18.80;;;;;;;8.89;65.29;100635.94;5011303;28;103728;-49
2022/01/21 03:28:15;;;;;;;26.40;19.35;;;;;;;8.89;65.78;100641.38;5012875;28;102507;-48
2022/01/21 03:30:42;;;;;;;25.23;19.27;;;;;;;8.89;65.25;100641.38;5012843;28;104121;-47
2022/01/21 03:33:08;;;;;;;26.02;19.50;;;;;;;8.88;65.22;100640.56;5018188;28;104217;-47
2022/01/21 03:35:35;;;;;;;24.33;18.83;;;;;;;8.88;65.51;100640.56;5006861;28;104193;-47
2022/01/21 03:38:02;;;;;;;21.45;17.90;;;;;;;8.87;65.72;100655.22;5010107;28;102198;-50
2022/01/21 03:40:29;;;;;;;22.95;18.00;;;;;;;8.88;65.37;100656.84;5011622;27;102476;-51
2022/01/21 03:42:55;;;;;;;20.92;17.17;;;;;;;8.88;64.84;100659.56;5008280;28;102176;-49
2022/01/21 03:45:23;;;;;;;21.02;17.05;;;;;;;8.88;65.00;100656.03;4995868;28;103914;-49
2022/01/21 03:47:52;;;;;;;21.38;17.58;;;;;;;8.87;64.78;100649.78;5012469;27;102289;-50
2022/01/21 03:50:31;;;;;;;23.07;17.83;;;;;;;8.88;65.07;100661.47;5010729;28;102244;-50
2022/01/21 03:52:58;;;;;;;20.73;17.00;;;;;;;8.87;65.28;100648.94;5014869;27;102411;-47
2022/01/21 03:55:25;;;;;;;21.35;17.02;;;;;;;8.86;64.96;100650.84;5014168;28;104245;-49
2022/01/21 03:57:51;;;;;;;21.73;16.90;;;;;;;8.86;65.59;100653.56;5012349;28;102580;-49
2022/01/21 04:00:21;;;;;;;19.27;15.75;;;;;;;8.86;65.76;100667.13;5008794;28;103681;-48
2022/01/21 04:02:49;;;;;;;;;;;;;;;8.87;65.60;100671.50;5017041;28;102230;-46
2022/01/21 04:05:15;;;;;;;18.92;15.27;;;;;;;8.87;64.72;100681.50;5015245;28;103961;-49
2022/01/21 04:07:42;;;;;;;19.83;16.10;;;;;;;8.86;65.31;100686.13;5014272;28;102321;-48
2022/01/21 04:10:09;;;;;;;20.67;15.77;;;;;;;8.86;65.03;100683.41;5013790;27;102197;-50
2022/01/21 04:12:36;;;;;;;20.70;15.85;;;;;;;8.85;65.30;100679.06;5017511;28;102224;-47
2022/01/21 04:15:03;;;;;;;18.75;15.85;;;;;;;8.86;64.80;100696.97;5011713;28;103987;-49
2022/01/21 04:17:31;;;;;;;19.20;15.50;;;;;;;8.85;64.89;100698.06;5012313;28;102507;-48
2022/01/21 04:19:59;;;;;;;18.75;16.00;;;;;;;8.85;65.21;100717.06;5005595;28;102167;-49
2022/01/21 04:22:25;;;;;;;19.08;16.08;;;;;;;8.84;64.97;100726.28;5016675;27;103263;-50
2022/01/21 04:24:52;;;;;;;16.88;14.90;;;;;;;8.85;64.94;100727.91;5012245;28;103912;-49
2022/01/21 04:27:18;;;;;;;18.70;14.82;;;;;;;8.85;65.40;100737.97;5011800;28;102425;-47
2022/01/21 04:29:45;;;;;;;18.52;15.52;;;;;;;8.84;65.25;100739.88;5001710;28;102033;-48
2022/01/21 04:32:12;;;;;;;17.75;14.50;;;;;;;8.84;65.28;100748.00;5017131;28;102161;-46
2022/01/21 04:34:39;;;;;;;16.75;14.10;;;;;;;8.84;65.44;100753.44;5013463;28;105415;-48
2022/01/21 04:37:09;;;;;;;17.02;14.05;;;;;;;8.84;65.07;100758.84;5013445;27;102194;-50
2022/01/21 04:39:42;;;;;;;16.58;13.57;;;;;;;8.85;65.06;100768.63;5012123;27;102464;-50
2022/01/21 04:47:47;;;;;;;17.45;13.50;;;;;;;8.85;65.18;100782.19;5011850;28;102153;-47
2022/01/21 04:50:14;;;;;;;19.30;14.35;;;;;;;8.84;64.59;100767.00;5013174;27;102465;-47
2022/01/21 04:52:42;;;;;;;18.00;13.32;;;;;;;8.83;65.94;100768.06;5011821;28;102124;-50
2022/01/21 04:55:09;;;;;;;18.75;13.10;;;;;;;8.85;65.39;100759.69;5012087;27;104021;-47
2022/01/21 04:57:36;;;;;;;16.42;13.32;;;;;;;8.83;65.33;100768.06;5013691;27;103113;-48
2022/01/21 05:00:05;;;;;;;15.05;12.68;;;;;;;8.84;64.51;100769.72;5006022;27;102432;-50
2022/01/21 05:02:33;;;;;;;16.25;12.20;;;;;;;8.84;65.58;100767.00;5014021;28;105276;-48
2022/01/21 05:05:00;;;;;;;16.23;12.60;;;;;;;8.84;65.02;100756.16;5011923;27;103992;-46
2022/01/21 05:07:28;;;;;;;15.80;12.73;;;;;;;8.85;64.84;100762.38;5014270;28;103940;-47
2022/01/21 05:09:56;;;;;;;15.65;12.82;;;;;;;8.84;65.13;100769.72;5013017;28;102666;-47
2022/01/21 05:12:25;;;;;;;14.90;12.52;;;;;;;8.84;65.85;100775.16;5012869;28;102594;-50
2022/01/21 05:15:09;;;;;;;15.33;12.37;;;;;;;8.84;64.96;100777.84;5008723;28;103760;-48
2022/01/21 05:17:43;;;;;;;14.98;12.15;;;;;;;8.84;65.10;100779.75;5003425;28;102198;-49
2022/01/21 05:20:11;;;;;;;17.40;12.88;;;;;;;8.83;65.38;100783.53;5005412;28;102138;-47
2022/01/21 05:22:39;;;;;;;15.83;12.03;;;;;;;8.84;65.69;100783.28;5014129;28;104261;-48
2022/01/21 05:25:09;;;;;;;14.57;11.70;;;;;;;8.84;65.17;100794.13;5010845;28;105618;-48
2022/01/21 05:27:35;;;;;;;14.70;11.38;;;;;;;8.84;65.77;100805.00;5012656;27;102269;-49
2022/01/21 05:30:03;;;;;;;13.63;11.10;;;;;;;8.84;64.77;100810.41;5012881;27;104281;-47
2022/01/21 05:32:29;;;;;;;14.02;11.65;;;;;;;8.84;65.23;100812.31;5007565;27;103643;-48
2022/01/21 05:34:56;;;;;;;13.13;11.07;;;;;;;8.83;64.79;100811.47;5010860;28;105134;-49
2022/01/21 05:37:22;;;;;;;14.20;11.32;;;;;;;8.83;65.53;100819.63;5006604;28;102075;-50
2022/01/21 05:39:49;;;;;;;13.77;11.50;;;;;;;8.84;65.83;100824.00;5012932;28;101983;-49
2022/01/21 05:42:17;;;;;;;12.82;10.95;;;;;;;8.84;64.93;100825.91;5011998;28;102185;-47
2022/01/21 05:47:10;;;;;;;11.60;9.50;;;;;;;8.84;65.18;100832.13;5013426;28;102548;-48
2022/01/21 05:49:37;;;;;;;12.85;10.88;;;;;;;8.85;65.31;100843.81;5011829;27;102288;-50
2022/01/21 05:52:16;;;;;;;12.57;10.60;;;;;;;8.84;65.76;100850.31;5009627;28;102580;-46
2022/01/21 05:54:45;;;;;;;11.70;9.50;;;;;;;8.84;65.06;100851.13;5009593;27;104242;-49
2022/01/21 05:57:14;;;;;;;11.80;10.07;;;;;;;8.84;65.45;100859.28;5013174;28;102281;-46
2022/01/21 05:59:43;;;;;;;12.13;10.43;;;;;;;8.85;65.84;100855.47;4998924;28;102458;-49
2022/01/21 06:02:11;;;;;;;12.90;10.00;;;;;;;8.84;65.18;100867.41;5011206;27;102363;-50
2022/01/21 06:04:40;;;;;;;10.75;8.90;;;;;;;8.85;65.38;100868.22;5010682;28;108971;-48
2022/01/21 06:07:07;;;;;;;12.97;10.33;;;;;;;8.85;64.85;100869.03;5011667;28;102241;-49
2022/01/21 06:09:34;;;;;;;10.65;9.45;;;;;;;8.85;65.64;100871.75;5008089;28;102403;-46
2022/01/21 06:12:00;;;;;;;11.38;9.55;;;;;;;8.84;65.24;100867.41;5002797;28;103895;-50
2022/01/21 06:14:27;;;;;;;10.80;9.20;;;;;;;8.85;64.87;100874.47;5007348;28;103847;-50
2022/01/21 06:16:55;;;;;;;11.35;9.23;;;;;;;8.85;65.47;100871.75;5004615;27;102629;-48
2022/01/21 06:19:21;;;;;;;10.98;8.95;;;;;;;8.86;65.08;100875.28;5005044;27;102207;-51
2022/01/21 06:21:48;;;;;;;12.13;8.68;;;;;;;8.86;65.99;100883.44;5002392;28;102500;-48
2022/01/21 06:24:14;;;;;;;12.10;9.27;;;;;;;8.84;65.73;100883.69;5001793;27;103956;-50
2022/01/21 06:26:41;;;;;;;12.23;9.43;;;;;;;8.85;64.92;100881.78;5010623;28;102660;-50
2022/01/21 06:29:07;;;;;;;10.45;8.45;;;;;;;8.85;65.03;100887.22;5013841;28;102850;-49
2022/01/21 06:31:34;;;;;;;9.48;7.90;;;;;;;8.85;65.48;100890.75;5011375;28;102275;-49
2022/01/21 06:34:02;;;;;;;9.82;8.75;;;;;;;8.84;65.40;100889.13;5006439;28;103970;-48
2022/01/21 06:36:29;;;;;;;9.43;8.43;;;;;;;8.85;65.73;100896.19;5004995;28;103058;-47
2022/01/21 06:38:56;;;;;;;10.05;8.30;;;;;;;8.85;65.68;100893.47;5010866;28;102076;-47
2022/01/21 06:41:22;;;;;;;10.27;9.00;;;;;;;8.85;65.18;100901.63;5012854;28;102307;-48
2022/01/21 06:43:50;;;;;;;9.48;8.35;;;;;;;8.85;65.00;100904.31;5011403;27;103910;-47
2022/01/21 06:46:16;;;;;;;9.48;7.95;;;;;;;8.85;65.29;100914.38;5006845;28;102604;-48
2022/01/21 06:48:43;;;;;;;12.07;8.50;;;;;;;8.85;65.14;100917.91;5007877;27;102563;-50
2022/01/21 06:51:10;;;;;;;9.75;8.15;;;;;;;8.85;65.48;100912.47;5008786;27;102298;-49
2022/01/21 06:53:37;;;;;;;9.73;7.68;;;;;;;8.87;65.69;100912.19;5011165;28;103867;-47
2022/01/21 06:56:04;;;;;;;9.23;7.82;;;;;;;8.88;65.46;100919.28;5006548;27;102422;-49
2022/01/21 06:58:31;;;;;;;9.60;7.72;;;;;;;8.87;65.19;100920.34;5011439;28;102704;-47
2022/01/21 07:00:58;;;;;;;11.10;7.80;;;;;;;8.88;65.17;100930.16;5004034;28;102362;-49
2022/01/21 07:03:24;;;;;;;9.55;6.95;;;;;;;8.86;65.10;100924.97;5006366;28;103884;-51
2022/01/21 07:05:51;;;;;;;9.48;7.82;;;;;;;8.86;65.83;100927.66;5008355;28;102290;-49
2022/01/21 07:08:19;;;;;;;9.45;7.65;;;;;;;8.86;65.35;100919.53;5009411;27;102284;-50
2022/01/21 07:10:46;;;;;;;8.18;7.13;;;;;;;8.88;65.99;100922.81;5002102;28;102700;-49
2022/01/21 07:13:12;;;;;;;7.88;6.93;;;;;;;8.89;65.93;100918.22;4996645;28;104176;-50
2022/01/21 07:15:39;;;;;;;8.50;7.00;;;;;;;8.88;65.09;100922.81;5007975;28;102411;-50
2022/01/21 07:18:05;;;;;;;8.75;7.28;;;;;;;8.89;65.54;100937.19;5009930;27;102313;-50
2022/01/21 07:20:32;;;;;;;8.27;7.07;;;;;;;8.88;65.86;100933.69;5001804;28;102174;-49
2022/01/21 07:22:59;;;;;;;8.98;6.85;;;;;;;8.89;65.04;100934.50;5000265;28;104277;-48
2022/01/21 07:25:27;;;;;;;8.55;7.00;;;;;;;8.90;64.86;100953.22;5004103;28;102262;-50
2022/01/21 07:27:53;;;;;;;7.78;6.97;;;;;;;8.89;65.09;100946.16;5011311;28;102084;-50
2022/01/21 07:30:20;;;;;;;8.88;6.55;;;;;;;8.91;65.45;100937.78;5013362;27;103513;-50
2022/01/21 07:32:47;;;;;;;7.35;6.00;;;;;;;8.89;65.39;100929.88;5014266;28;103933;-51
2022/01/21 07:35:15;;;;;;;8.80;6.82;;;;;;;8.90;64.84;100931.50;5013030;28;102277;-51
2022/01/21 07:37:41;;;;;;;8.85;6.97;;;;;;;8.89;64.99;100934.50;5015426;27;102336;-50
2022/01/21 07:40:09;;;;;;;7.53;6.45;;;;;;;8.89;65.54;100951.59;5001810;28;102523;-51
2022/01/21 07:42:39;;;;;;;7.25;6.15;;;;;;;8.88;65.32;100949.97;5009747;28;103888;-51
2022/01/21 07:45:06;;;;;;;;;;;;;;;8.89;66.00;100956.19;5013680;27;103395;-50
2022/01/21 07:47:33;;;;;;;9.20;6.15;;;;;;;8.89;65.13;100959.72;5016966;27;102044;-52
2022/01/21 07:49:59;;;;;;;7.97;6.35;;;;;;;8.88;65.44;100966.25;5014812;28;102245;-48
2022/01/21 07:52:25;;;;;;;7.50;6.32;;;;;;;8.88;65.89;100966.25;5011484;28;103901;-48
2022/01/21 07:54:52;;;;;;;7.40;5.75;;;;;;;8.90;65.62;100969.50;5011252;27;102427;-50
2022/01/21 07:57:18;;;;;;;7.82;5.95;;;;;;;8.89;65.40;100969.78;5006766;28;103670;-51
2022/01/21 07:59:46;;;;;;;7.47;5.72;;;;;;;8.90;65.64;100968.69;5017333;28;102634;-49
2022/01/21 08:02:13;;;;;;;5.65;5.15;;;;;;;8.89;65.11;100961.63;5010039;28;103896;-45
2022/01/21 08:04:39;;;;;;;7.05;5.93;;;;;;;8.89;65.05;100962.44;5007204;28;102880;-51
2022/01/21 08:07:09;;;;;;;7.80;5.85;;;;;;;8.89;65.90;100962.44;5013693;27;102329;-47
2022/01/21 08:09:35;;;;;;;8.38;6.53;;;;;;;8.89;65.04;100957.03;5014254;27;102457;-49
2022/01/21 08:12:02;;;;;;;8.60;6.85;;;;;;;8.88;65.14;100955.38;5012745;28;104007;-49
2022/01/21 08:14:29;;;;;;;8.82;6.80;;;;;;;8.88;65.10;100955.38;5019521;27;102487;-50
2022/01/21 08:16:59;;;;;;;8.60;6.72;;;;;;;8.88;65.81;100958.09;5013424;28;102339;-50
2022/01/21 08:19:25;;;;;;;9.52;7.63;;;;;;;8.89;64.87;100967.88;5004981;28;102746;-48
2022/01/21 08:21:52;;;;;;;8.82;7.35;;;;;;;8.88;65.48;100968.16;5014230;28;103576;-49
2022/01/21 08:24:19;;;;;;;9.45;7.60;;;;;;;8.88;65.46;100976.28;5014321;28;102576;-49
2022/01/21 08:26:45;;;;;;;9.63;7.90;;;;;;;8.88;65.47;100976.28;5010687;28;102166;-50
2022/01/21 08:29:12;;;;;;;8.05;7.30;;;;;;;8.88;64.90;100970.84;5013998;28;102178;-48
2022/01/21 08:31:38;;;;;;;10.95;7.38;;;;;;;8.86;64.73;100973.81;5009517;28;103919;-50
2022/01/21 08:34:06;;;;;;;7.55;6.65;;;;;;;8.88;65.37;100970.84;5008523;27;102384;-51
2022/01/21 08:36:33;;;;;;;7.30;6.35;;;;;;;8.87;64.93;100970.03;5013522;27;103514;-51
2022/01/21 08:38:59;;;;;;;8.05;6.40;;;;;;;8.88;65.34;100977.09;5015190;27;102405;-51
2022/01/21 08:41:26;;;;;;;7.25;6.53;;;;;;;8.87;64.87;100975.47;5003623;27;104063;-49
2022/01/21 08:43:53;;;;;;;8.15;6.28;;;;;;;8.87;65.17;100972.75;5011151;27;102956;-50
2022/01/21 08:46:20;;;;;;;7.43;5.80;;;;;;;8.88;64.89;100981.72;5012400;28;102394;-51
2022/01/21 08:48:46;;;;;;;7.88;6.40;;;;;;;8.86;65.40;100968.38;5002097;28;102387;-48
2022/01/21 08:51:22;;;;;;;8.23;6.68;;;;;;;8.87;64.80;100975.47;5008197;28;103901;-50
2022/01/21 08:53:48;;;;;;;8.02;5.88;;;;;;;8.88;65.40;100976.28;5016916;27;102114;-49
2022/01/21 08:56:17;;;;;;;9.00;5.63;;;;;;;8.87;64.57;100980.91;5012684;27;102269;-48
2022/01/21 08:58:46;;;;;;;6.70;5.72;;;;;;;8.86;64.82;100979.22;5020388;27;102696;-47
2022/01/21 09:01:14;;;;;;;8.15;6.07;;;;;;;8.88;65.48;100984.44;5009242;27;104254;-47
2022/01/21 09:03:41;;;;;;;7.80;5.80;;;;;;;8.87;65.01;100980.91;5011641;28;102196;-48
2022/01/21 09:06:08;;;;;;;8.70;6.30;;;;;;;8.87;64.60;100975.47;5014924;27;102470;-50
2022/01/21 09:08:38;;;;;;;7.38;5.45;;;;;;;8.88;64.92;100968.16;5005980;28;102356;-50
2022/01/21 09:11:05;;;;;;;7.20;5.38;;;;;;;8.88;65.28;100974.38;5011486;27;103776;-49
2022/01/21 09:13:38;;;;;;;7.55;6.28;;;;;;;8.88;64.91;100973.56;5008962;27;103741;-50
2022/01/21 09:16:06;;;;;;;7.78;6.13;;;;;;;8.87;65.00;100964.63;5010806;28;102261;-50
2022/01/21 09:18:45;;;;;;;6.47;5.70;;;;;;;8.88;64.95;100968.97;5012768;27;102218;-49
2022/01/21 09:21:11;;;;;;;10.17;7.00;;;;;;;8.88;64.22;100966.25;5007261;28;103955;-50
2022/01/21 09:23:40;;;;;;;9.93;7.10;;;;;;;8.88;64.18;100960.81;5012283;27;102668;-48
2022/01/21 09:26:06;;;;;;;10.40;7.00;;;;;;;8.87;64.62;100951.03;5012207;27;102117;-48
2022/01/21 09:28:33;;;;;;;10.23;7.47;;;;;;;8.88;65.12;100952.69;5013646;27;102336;-47
2022/01/21 09:30:59;;;;;;;8.02;6.75;;;;;;;8.88;65.37;100952.69;5009052;28;103889;-49
2022/01/21 09:33:26;;;;;;;9.40;6.68;;;;;;;8.88;64.60;100960.81;5012370;28;103018;-49
2022/01/21 09:35:52;;;;;;;9.35;6.63;;;;;;;8.89;64.48;100951.59;5006687;28;102229;-49
2022/01/21 09:38:19;;;;;;;8.55;6.55;;;;;;;8.89;65.49;100950.78;5011444;28;102904;-48
2022/01/21 09:40:49;;;;;;;7.38;5.93;;;;;;;8.88;64.52;100941.81;5007525;28;103905;-48
2022/01/21 09:43:17;;;;;;;8.43;6.53;;;;;;;8.89;65.08;100940.72;5004963;28;102701;-49
2022/01/21 09:45:46;;;;;;;8.55;6.65;;;;;;;8.89;64.97;100932.59;5003857;28;104354;-49
2022/01/21 09:48:20;;;;;;;8.90;6.88;;;;;;;8.89;64.88;100940.72;5010198;28;102295;-49
2022/01/21 09:50:47;;;;;;;7.68;6.57;;;;;;;8.90;65.08;100936.13;5003335;27;103655;-48
2022/01/21 09:53:14;;;;;;;7.95;5.88;;;;;;;8.90;64.93;100936.94;5008109;28;102423;-49
2022/01/21 09:55:41;;;;;;;7.82;6.25;;;;;;;8.90;64.83;100944.25;5010634;27;102647;-49
2022/01/21 09:58:08;;;;;;;7.05;5.88;;;;;;;8.92;64.93;100927.75;5007518;27;103928;-50
2022/01/21 10:00:35;;;;;;;11.48;6.80;;;;;;;8.90;65.09;100923.38;5019636;27;103888;-47
2022/01/21 10:03:03;;;;;;;15.23;10.13;;;;;;;8.91;65.36;100916.06;4993518;28;103049;-48
2022/01/21 10:05:30;;;;;;;15.18;11.93;;;;;;;8.92;64.82;100927.75;4999224;28;102718;-48
2022/01/21 10:08:00;;;;;;;11.25;8.80;;;;;;;8.92;65.50;100927.75;5001007;28;102647;-50
2022/01/21 10:10:26;;;;;;;11.70;8.43;;;;;;;8.92;64.64;100935.88;4998607;27;103813;-47
2022/01/21 10:13:01;;;;;;;14.40;8.48;;;;;;;8.92;64.28;100927.75;5002788;27;102658;-50
2022/01/21 10:15:29;;;;;;;12.10;7.60;;;;;;;8.92;64.80;100922.31;5008538;28;104544;-47
2022/01/21 10:18:03;;;;;;;11.82;8.73;;;;;;;8.93;64.90;100907.66;4997740;28;103474;-50
2022/01/21 10:20:30;;;;;;;9.27;6.97;;;;;;;8.93;65.05;100902.22;5002470;28;104487;-50
2022/01/21 10:22:58;;;;;;;9.05;7.25;;;;;;;8.93;65.11;100899.50;4999788;28;102057;-48
2022/01/21 10:25:24;;;;;;;10.25;7.53;;;;;;;8.93;64.64;100911.19;5004660;28;102862;-50
2022/01/21 10:27:51;;;;;;;9.27;7.72;;;;;;;8.93;64.67;100902.22;5001364;28;102237;-50
2022/01/21 10:30:23;;;;;;;8.55;7.00;;;;;;;8.94;64.74;100898.44;5010005;27;104021;-49
2022/01/21 10:32:51;;;;;;;9.77;7.40;;;;;;;8.94;64.26;100896.53;5010591;28;102510;-48
2022/01/21 10:35:23;;;;;;;9.48;7.20;;;;;;;8.95;65.25;100891.94;5010878;28;102696;-48
2022/01/21 10:37:50;;;;;;;9.35;7.38;;;;;;;8.95;64.12;100889.22;5013220;28;102849;-50
2022/01/21 10:40:19;;;;;;;9.65;7.18;;;;;;;8.95;65.05;100878.38;5010832;28;104272;-47
2022/01/21 10:42:45;;;;;;;9.30;6.93;;;;;;;8.95;64.37;100879.19;5010038;27;102384;-48
2022/01/21 10:45:12;;;;;;;8.75;6.55;;;;;;;8.95;64.76;100878.38;5011327;28;102521;-48
2022/01/21 10:47:40;;;;;;;9.32;6.88;;;;;;;8.95;64.59;100867.53;5010039;27;102083;-47
2022/01/21 10:50:11;;;;;;;8.40;6.85;;;;;;;8.95;64.63;100876.47;4999806;28;104265;-49
2022/01/21 10:52:43;;;;;;;8.02;6.53;;;;;;;8.95;64.48;100872.94;5007818;27;103639;-47
2022/01/21 10:55:28;;;;;;;7.90;6.53;;;;;;;8.96;65.15;100874.56;5005678;28;102456;-50
2022/01/21 10:58:05;;;;;;;9.63;6.72;;;;;;;8.96;64.61;100877.28;5004872;28;102355;-49
2022/01/21 11:00:32;;;;;;;9.98;6.68;;;;;;;8.96;64.98;100880.00;5005740;28;103982;-50
2022/01/21 11:03:08;;;;;;;8.35;6.57;;;;;;;8.96;64.78;100882.72;5009745;28;102212;-47
2022/01/21 11:05:41;;;;;;;9.30;7.25;;;;;;;8.96;64.71;100885.44;5008642;28;102446;-50
2022/01/21 11:08:09;;;;;;;8.63;6.40;;;;;;;8.96;65.24;100886.25;5018727;27;102288;-49
2022/01/21 11:10:45;;;;;;;7.78;6.50;;;;;;;8.96;64.55;100880.00;5005300;28;103648;-50
2022/01/21 11:13:36;;;;;;;9.13;6.60;;;;;;;8.96;64.59;100880.00;5012172;27;102496;-51
2022/01/21 11:16:10;;;;;;;10.48;6.97;;;;;;;8.97;65.05;100884.34;5002347;28;102491;-48
2022/01/21 11:18:50;;;;;;;9.82;6.70;;;;;;;8.96;64.80;100880.00;5009881;27;102076;-50
2022/01/21 11:21:18;;;;;;;8.75;6.78;;;;;;;8.96;64.85;100886.25;5011398;27;107955;-49
2022/01/21 11:23:44;;;;;;;10.02;6.28;;;;;;;8.96;65.17;100880.00;5010907;27;102103;-46
2022/01/21 11:26:14;;;;;;;8.77;6.47;;;;;;;8.96;64.52;100869.97;5007989;28;102326;-48
2022/01/21 11:28:45;;;;;;;8.02;6.57;;;;;;;8.96;65.02;100869.16;5004161;28;103458;-50
2022/01/21 11:31:13;;;;;;;9.13;6.22;;;;;;;8.97;64.72;100865.34;5013696;28;103912;-46
2022/01/21 11:33:39;;;;;;;9.48;6.70;;;;;;;8.96;65.45;100861.00;5001417;28;102522;-48
2022/01/21 11:36:06;;;;;;;8.30;5.78;;;;;;;8.96;65.00;100858.28;5007591;27;102096;-49
2022/01/21 11:38:37;;;;;;;8.32;6.07;;;;;;;8.95;64.34;100862.91;5009756;27;102255;-51
2022/01/21 11:41:05;;;;;;;7.88;5.93;;;;;;;8.96;64.71;100847.44;5009645;27;103980;-47
2022/01/21 11:43:33;;;;;;;6.97;6.07;;;;;;;8.96;65.02;100844.72;5006472;28;102202;-49
2022/01/21 11:46:18;;;;;;;7.32;5.85;;;;;;;8.95;64.64;100852.06;5010572;27;102539;-47
2022/01/21 11:48:53;;;;;;;8.98;6.22;;;;;;;8.95;65.37;100854.75;5010891;28;102148;-49
2022/01/21 11:51:22;;;;;;;6.78;5.60;;;;;;;8.96;64.10;100853.69;5008158;28;103983;-47
2022/01/21 11:53:54;;;;;;;8.05;5.70;;;;;;;8.95;64.34;100843.91;5014882;28;102189;-47
2022/01/21 11:56:42;;;;;;;8.38;5.40;;;;;;;8.94;64.61;100844.97;5010446;28;102246;-51
2022/01/21 11:59:20;;;;;;;9.05;5.88;;;;;;;8.95;64.93;100848.53;5012825;28;103803;-49
2022/01/21 12:01:49;;;;;;;6.80;5.57;;;;;;;8.94;64.35;100855.81;5010702;28;103899;-48
2022/01/21 12:04:35;;;;;;;8.43;5.93;;;;;;;8.95;65.47;100845.81;5007507;27;102264;-48
2022/01/21 12:07:02;;;;;;;8.73;5.93;;;;;;;8.95;65.02;100838.47;5009366;28;102373;-48
2022/01/21 12:09:58;;;;;;;7.97;5.47;;;;;;;8.96;64.66;100833.88;5012265;28;102297;-49
2022/01/21 12:12:50;;;;;;;6.95;5.57;;;;;;;8.96;65.21;100836.56;5004486;28;107944;-47